sensor_id;sensor_type;location;lat;lon;timestamp;temperature;humidity
68556;HTU21D;55544;51.032;5.866;2023-07-16T00:02:04;19.73;81.23
68556;HTU21D;55544;51.032;5.866;2023-07-16T00:04:33;19.72;80.45
68556;HTU21D;55544;51.032;5.866;2023-07-16T00:07:02;19.59;79.97
68556;HTU21D;55544;51.032;5.866;2023-07-16T00:09:28;19.56;79.78
68556;HTU21D;55544;51.032;5.866;2023-07-16T00:11:54;19.51;79.30
68556;HTU21D;55544;51.032;5.866;2023-07-16T00:14:19;19.46;79.07
68556;HTU21D;55544;51.032;5.866;2023-07-16T00:16:45;19.44;78.82
68556;HTU21D;55544;51.032;5.866;2023-07-16T00:19:11;19.39;78.69
68556;HTU21D;55544;51.032;5.866;2023-07-16T00:21:38;19.37;78.75
68556;HTU21D;55544;51.032;5.866;2023-07-16T00:24:04;19.33;78.87
68556;HTU21D;55544;51.032;5.866;2023-07-16T00:26:30;19.32;79.02
68556;HTU21D;55544;51.032;5.866;2023-07-16T00:28:56;19.31;79.17
68556;HTU21D;55544;51.032;5.866;2023-07-16T00:31:22;19.35;79.33
68556;HTU21D;55544;51.032;5.866;2023-07-16T00:33:47;19.37;78.98
68556;HTU21D;55544;51.032;5.866;2023-07-16T00:36:13;19.35;78.95
68556;HTU21D;55544;51.032;5.866;2023-07-16T00:38:39;19.36;78.71
68556;HTU21D;55544;51.032;5.866;2023-07-16T00:41:07;19.31;78.53
68556;HTU21D;55544;51.032;5.866;2023-07-16T00:43:32;19.30;78.50
68556;HTU21D;55544;51.032;5.866;2023-07-16T00:45:58;19.25;78.55
68556;HTU21D;55544;51.032;5.866;2023-07-16T00:48:25;19.21;78.66
68556;HTU21D;55544;51.032;5.866;2023-07-16T00:50:52;19.22;78.76
68556;HTU21D;55544;51.032;5.866;2023-07-16T00:53:20;19.23;78.66
68556;HTU21D;55544;51.032;5.866;2023-07-16T00:55:46;19.25;78.72
68556;HTU21D;55544;51.032;5.866;2023-07-16T00:58:12;19.28;78.53
68556;HTU21D;55544;51.032;5.866;2023-07-16T01:00:39;19.29;78.43
68556;HTU21D;55544;51.032;5.866;2023-07-16T01:03:07;19.31;78.35
68556;HTU21D;55544;51.032;5.866;2023-07-16T01:08:43;19.33;78.25
68556;HTU21D;55544;51.032;5.866;2023-07-16T01:11:11;19.32;78.11
68556;HTU21D;55544;51.032;5.866;2023-07-16T01:13:38;19.28;78.34
68556;HTU21D;55544;51.032;5.866;2023-07-16T01:16:05;19.26;78.45
68556;HTU21D;55544;51.032;5.866;2023-07-16T01:18:31;19.30;78.32
68556;HTU21D;55544;51.032;5.866;2023-07-16T01:20:58;19.30;78.14
68556;HTU21D;55544;51.032;5.866;2023-07-16T01:23:29;19.33;77.69
68556;HTU21D;55544;51.032;5.866;2023-07-16T01:31:02;19.24;77.86
68556;HTU21D;55544;51.032;5.866;2023-07-16T01:33:28;19.16;78.05
68556;HTU21D;55544;51.032;5.866;2023-07-16T01:35:56;19.12;78.53
68556;HTU21D;55544;51.032;5.866;2023-07-16T01:38:23;19.12;79.07
68556;HTU21D;55544;51.032;5.866;2023-07-16T01:40:49;19.11;79.58
68556;HTU21D;55544;51.032;5.866;2023-07-16T01:43:14;19.17;79.89
68556;HTU21D;55544;51.032;5.866;2023-07-16T01:45:40;19.11;80.43
68556;HTU21D;55544;51.032;5.866;2023-07-16T01:50:54;19.11;80.56
68556;HTU21D;55544;51.032;5.866;2023-07-16T01:53:19;19.10;80.69
68556;HTU21D;55544;51.032;5.866;2023-07-16T01:55:45;19.12;80.46
68556;HTU21D;55544;51.032;5.866;2023-07-16T01:58:11;19.09;80.35
68556;HTU21D;55544;51.032;5.866;2023-07-16T02:00:37;19.03;80.41
68556;HTU21D;55544;51.032;5.866;2023-07-16T02:03:02;19.08;79.95
68556;HTU21D;55544;51.032;5.866;2023-07-16T02:05:31;19.07;79.71
68556;HTU21D;55544;51.032;5.866;2023-07-16T02:07:57;19.05;79.42
68556;HTU21D;55544;51.032;5.866;2023-07-16T02:10:22;19.06;79.14
68556;HTU21D;55544;51.032;5.866;2023-07-16T02:12:48;19.07;78.51
68556;HTU21D;55544;51.032;5.866;2023-07-16T02:15:14;19.02;78.48
68556;HTU21D;55544;51.032;5.866;2023-07-16T02:17:42;18.99;78.25
68556;HTU21D;55544;51.032;5.866;2023-07-16T02:20:08;18.97;77.92
68556;HTU21D;55544;51.032;5.866;2023-07-16T02:22:38;18.95;77.77
68556;HTU21D;55544;51.032;5.866;2023-07-16T02:25:04;18.91;77.46
68556;HTU21D;55544;51.032;5.866;2023-07-16T02:27:30;18.80;77.34
68556;HTU21D;55544;51.032;5.866;2023-07-16T02:29:55;18.76;76.21
68556;HTU21D;55544;51.032;5.866;2023-07-16T02:32:22;18.81;76.52
68556;HTU21D;55544;51.032;5.866;2023-07-16T02:34:47;18.72;76.48
68556;HTU21D;55544;51.032;5.866;2023-07-16T02:37:13;18.76;76.30
68556;HTU21D;55544;51.032;5.866;2023-07-16T02:39:41;18.73;76.26
68556;HTU21D;55544;51.032;5.866;2023-07-16T02:42:08;18.66;76.49
68556;HTU21D;55544;51.032;5.866;2023-07-16T02:44:34;18.64;76.65
68556;HTU21D;55544;51.032;5.866;2023-07-16T02:47:04;18.58;76.82
68556;HTU21D;55544;51.032;5.866;2023-07-16T02:49:29;18.58;76.60
68556;HTU21D;55544;51.032;5.866;2023-07-16T02:51:56;18.55;76.69
68556;HTU21D;55544;51.032;5.866;2023-07-16T02:54:22;18.50;76.71
68556;HTU21D;55544;51.032;5.866;2023-07-16T02:56:48;18.44;76.87
68556;HTU21D;55544;51.032;5.866;2023-07-16T02:59:14;18.46;76.62
68556;HTU21D;55544;51.032;5.866;2023-07-16T03:01:39;18.46;76.55
68556;HTU21D;55544;51.032;5.866;2023-07-16T03:04:05;18.43;75.81
68556;HTU21D;55544;51.032;5.866;2023-07-16T03:06:31;18.42;75.35
68556;HTU21D;55544;51.032;5.866;2023-07-16T03:08:57;18.41;75.21
68556;HTU21D;55544;51.032;5.866;2023-07-16T03:11:23;18.39;74.99
68556;HTU21D;55544;51.032;5.866;2023-07-16T03:13:48;18.40;74.10
68556;HTU21D;55544;51.032;5.866;2023-07-16T03:16:14;18.35;74.35
68556;HTU21D;55544;51.032;5.866;2023-07-16T03:18:40;18.37;74.17
68556;HTU21D;55544;51.032;5.866;2023-07-16T03:21:07;18.35;74.21
68556;HTU21D;55544;51.032;5.866;2023-07-16T03:23:33;18.35;74.12
68556;HTU21D;55544;51.032;5.866;2023-07-16T03:25:59;18.33;74.18
68556;HTU21D;55544;51.032;5.866;2023-07-16T03:28:25;18.32;73.99
68556;HTU21D;55544;51.032;5.866;2023-07-16T03:30:51;18.28;74.02
68556;HTU21D;55544;51.032;5.866;2023-07-16T03:33:18;18.24;73.46
68556;HTU21D;55544;51.032;5.866;2023-07-16T03:35:45;18.29;73.43
68556;HTU21D;55544;51.032;5.866;2023-07-16T03:38:12;18.22;73.38
68556;HTU21D;55544;51.032;5.866;2023-07-16T03:40:39;18.20;72.95
68556;HTU21D;55544;51.032;5.866;2023-07-16T03:43:06;18.21;72.81
68556;HTU21D;55544;51.032;5.866;2023-07-16T03:45:32;18.15;72.67
68556;HTU21D;55544;51.032;5.866;2023-07-16T03:47:58;18.17;72.54
68556;HTU21D;55544;51.032;5.866;2023-07-16T03:50:24;18.15;72.69
68556;HTU21D;55544;51.032;5.866;2023-07-16T03:52:50;18.10;72.86
68556;HTU21D;55544;51.032;5.866;2023-07-16T03:55:16;18.10;72.65
68556;HTU21D;55544;51.032;5.866;2023-07-16T03:57:42;18.09;72.71
68556;HTU21D;55544;51.032;5.866;2023-07-16T04:00:08;18.11;72.58
68556;HTU21D;55544;51.032;5.866;2023-07-16T04:02:44;18.13;72.34
68556;HTU21D;55544;51.032;5.866;2023-07-16T04:05:15;18.09;72.20
68556;HTU21D;55544;51.032;5.866;2023-07-16T04:07:41;18.24;71.78
68556;HTU21D;55544;51.032;5.866;2023-07-16T04:10:07;18.15;71.79
68556;HTU21D;55544;51.032;5.866;2023-07-16T04:12:33;18.18;71.92
68556;HTU21D;55544;51.032;5.866;2023-07-16T04:14:59;18.17;71.75
68556;HTU21D;55544;51.032;5.866;2023-07-16T04:17:25;18.13;71.96
68556;HTU21D;55544;51.032;5.866;2023-07-16T04:19:50;18.15;71.72
68556;HTU21D;55544;51.032;5.866;2023-07-16T04:22:16;18.14;71.82
68556;HTU21D;55544;51.032;5.866;2023-07-16T04:24:42;18.10;71.87
68556;HTU21D;55544;51.032;5.866;2023-07-16T04:27:07;18.09;72.09
68556;HTU21D;55544;51.032;5.866;2023-07-16T04:29:33;18.14;71.84
68556;HTU21D;55544;51.032;5.866;2023-07-16T04:31:59;18.13;71.77
68556;HTU21D;55544;51.032;5.866;2023-07-16T04:34:24;18.13;71.72
68556;HTU21D;55544;51.032;5.866;2023-07-16T04:36:50;18.04;71.83
68556;HTU21D;55544;51.032;5.866;2023-07-16T04:39:16;18.06;71.43
68556;HTU21D;55544;51.032;5.866;2023-07-16T04:41:42;18.08;71.62
68556;HTU21D;55544;51.032;5.866;2023-07-16T04:44:07;18.10;71.19
68556;HTU21D;55544;51.032;5.866;2023-07-16T04:46:33;18.08;71.36
68556;HTU21D;55544;51.032;5.866;2023-07-16T04:48:59;18.09;71.41
68556;HTU21D;55544;51.032;5.866;2023-07-16T04:51:25;18.13;71.38
68556;HTU21D;55544;51.032;5.866;2023-07-16T04:53:51;18.13;70.92
68556;HTU21D;55544;51.032;5.866;2023-07-16T04:56:17;18.15;70.76
68556;HTU21D;55544;51.032;5.866;2023-07-16T04:58:42;18.14;70.42
68556;HTU21D;55544;51.032;5.866;2023-07-16T05:01:09;18.09;70.69
68556;HTU21D;55544;51.032;5.866;2023-07-16T05:03:36;18.14;70.36
68556;HTU21D;55544;51.032;5.866;2023-07-16T05:06:02;18.17;70.18
68556;HTU21D;55544;51.032;5.866;2023-07-16T05:08:27;18.20;70.44
68556;HTU21D;55544;51.032;5.866;2023-07-16T05:10:54;18.21;70.29
68556;HTU21D;55544;51.032;5.866;2023-07-16T05:13:19;18.21;70.25
68556;HTU21D;55544;51.032;5.866;2023-07-16T05:15:45;18.26;69.69
68556;HTU21D;55544;51.032;5.866;2023-07-16T05:18:11;18.27;69.70
68556;HTU21D;55544;51.032;5.866;2023-07-16T05:20:37;18.29;69.45
68556;HTU21D;55544;51.032;5.866;2023-07-16T05:23:02;18.34;69.33
68556;HTU21D;55544;51.032;5.866;2023-07-16T05:25:28;18.28;69.76
68556;HTU21D;55544;51.032;5.866;2023-07-16T05:27:55;18.34;69.72
68556;HTU21D;55544;51.032;5.866;2023-07-16T05:30:21;18.28;69.29
68556;HTU21D;55544;51.032;5.866;2023-07-16T05:32:46;18.34;68.99
68556;HTU21D;55544;51.032;5.866;2023-07-16T05:35:12;18.36;68.68
68556;HTU21D;55544;51.032;5.866;2023-07-16T05:37:38;18.38;68.31
68556;HTU21D;55544;51.032;5.866;2023-07-16T05:40:04;18.41;68.31
68556;HTU21D;55544;51.032;5.866;2023-07-16T05:42:30;18.47;68.20
68556;HTU21D;55544;51.032;5.866;2023-07-16T05:44:56;18.34;67.78
68556;HTU21D;55544;51.032;5.866;2023-07-16T05:47:21;18.32;66.96
68556;HTU21D;55544;51.032;5.866;2023-07-16T05:49:47;18.41;67.82
68556;HTU21D;55544;51.032;5.866;2023-07-16T05:52:13;18.39;68.00
68556;HTU21D;55544;51.032;5.866;2023-07-16T05:54:39;18.44;68.09
68556;HTU21D;55544;51.032;5.866;2023-07-16T05:57:05;18.51;67.81
68556;HTU21D;55544;51.032;5.866;2023-07-16T05:59:31;18.50;68.02
68556;HTU21D;55544;51.032;5.866;2023-07-16T06:02:01;18.48;68.10
68556;HTU21D;55544;51.032;5.866;2023-07-16T06:04:27;18.59;67.95
68556;HTU21D;55544;51.032;5.866;2023-07-16T06:06:53;18.55;67.10
68556;HTU21D;55544;51.032;5.866;2023-07-16T06:09:19;18.55;66.91
68556;HTU21D;55544;51.032;5.866;2023-07-16T06:11:48;18.63;66.64
68556;HTU21D;55544;51.032;5.866;2023-07-16T06:14:14;18.66;66.98
68556;HTU21D;55544;51.032;5.866;2023-07-16T06:16:40;18.68;67.54
68556;HTU21D;55544;51.032;5.866;2023-07-16T06:19:05;18.76;67.04
68556;HTU21D;55544;51.032;5.866;2023-07-16T06:21:31;18.74;66.36
68556;HTU21D;55544;51.032;5.866;2023-07-16T06:23:57;18.76;66.59
68556;HTU21D;55544;51.032;5.866;2023-07-16T06:26:23;18.72;66.56
68556;HTU21D;55544;51.032;5.866;2023-07-16T06:28:48;18.77;66.81
68556;HTU21D;55544;51.032;5.866;2023-07-16T06:31:16;18.81;67.06
68556;HTU21D;55544;51.032;5.866;2023-07-16T06:33:42;18.85;66.65
68556;HTU21D;55544;51.032;5.866;2023-07-16T06:36:07;18.87;66.17
68556;HTU21D;55544;51.032;5.866;2023-07-16T06:38:33;18.88;66.22
68556;HTU21D;55544;51.032;5.866;2023-07-16T06:40:59;18.94;64.36
68556;HTU21D;55544;51.032;5.866;2023-07-16T06:43:25;19.01;65.01
68556;HTU21D;55544;51.032;5.866;2023-07-16T06:45:50;19.06;64.79
68556;HTU21D;55544;51.032;5.866;2023-07-16T06:48:16;19.06;65.12
68556;HTU21D;55544;51.032;5.866;2023-07-16T06:50:43;19.13;64.92
68556;HTU21D;55544;51.032;5.866;2023-07-16T06:53:09;19.10;64.70
68556;HTU21D;55544;51.032;5.866;2023-07-16T06:55:34;19.12;65.29
68556;HTU21D;55544;51.032;5.866;2023-07-16T06:58:00;19.21;64.34
68556;HTU21D;55544;51.032;5.866;2023-07-16T07:00:26;19.18;65.21
68556;HTU21D;55544;51.032;5.866;2023-07-16T07:02:52;19.28;64.43
68556;HTU21D;55544;51.032;5.866;2023-07-16T07:05:18;19.30;65.13
68556;HTU21D;55544;51.032;5.866;2023-07-16T07:07:43;19.42;64.30
68556;HTU21D;55544;51.032;5.866;2023-07-16T07:10:11;19.50;64.60
68556;HTU21D;55544;51.032;5.866;2023-07-16T07:12:46;19.62;64.17
68556;HTU21D;55544;51.032;5.866;2023-07-16T07:15:12;19.60;63.10
68556;HTU21D;55544;51.032;5.866;2023-07-16T07:17:38;19.63;63.85
68556;HTU21D;55544;51.032;5.866;2023-07-16T07:20:04;19.70;63.96
68556;HTU21D;55544;51.032;5.866;2023-07-16T07:22:31;19.82;64.48
68556;HTU21D;55544;51.032;5.866;2023-07-16T07:24:57;19.96;64.18
68556;HTU21D;55544;51.032;5.866;2023-07-16T07:27:22;20.11;63.15
68556;HTU21D;55544;51.032;5.866;2023-07-16T07:29:48;20.25;62.35
68556;HTU21D;55544;51.032;5.866;2023-07-16T07:32:21;20.22;61.40
68556;HTU21D;55544;51.032;5.866;2023-07-16T07:34:47;20.11;62.15
68556;HTU21D;55544;51.032;5.866;2023-07-16T07:37:13;20.14;62.08
68556;HTU21D;55544;51.032;5.866;2023-07-16T07:39:39;20.10;62.24
68556;HTU21D;55544;51.032;5.866;2023-07-16T07:42:05;20.13;62.63
68556;HTU21D;55544;51.032;5.866;2023-07-16T07:44:32;20.25;62.63
68556;HTU21D;55544;51.032;5.866;2023-07-16T07:46:58;20.13;62.28
68556;HTU21D;55544;51.032;5.866;2023-07-16T07:49:23;20.25;61.92
68556;HTU21D;55544;51.032;5.866;2023-07-16T07:51:49;20.26;61.46
68556;HTU21D;55544;51.032;5.866;2023-07-16T07:54:15;20.36;60.58
68556;HTU21D;55544;51.032;5.866;2023-07-16T07:56:42;20.35;60.51
68556;HTU21D;55544;51.032;5.866;2023-07-16T07:59:08;20.41;60.67
68556;HTU21D;55544;51.032;5.866;2023-07-16T08:01:33;20.33;60.28
68556;HTU21D;55544;51.032;5.866;2023-07-16T08:03:59;20.34;60.55
68556;HTU21D;55544;51.032;5.866;2023-07-16T08:06:25;20.40;61.10
68556;HTU21D;55544;51.032;5.866;2023-07-16T08:08:51;20.47;61.30
68556;HTU21D;55544;51.032;5.866;2023-07-16T08:11:17;20.54;61.33
68556;HTU21D;55544;51.032;5.866;2023-07-16T08:13:43;20.73;61.09
68556;HTU21D;55544;51.032;5.866;2023-07-16T08:16:09;20.81;61.03
68556;HTU21D;55544;51.032;5.866;2023-07-16T08:18:35;20.95;60.64
68556;HTU21D;55544;51.032;5.866;2023-07-16T08:21:01;20.93;60.09
68556;HTU21D;55544;51.032;5.866;2023-07-16T08:23:26;20.94;60.76
68556;HTU21D;55544;51.032;5.866;2023-07-16T08:25:52;20.95;60.50
68556;HTU21D;55544;51.032;5.866;2023-07-16T08:28:18;21.15;60.35
68556;HTU21D;55544;51.032;5.866;2023-07-16T08:30:46;21.28;60.50
68556;HTU21D;55544;51.032;5.866;2023-07-16T08:33:12;21.37;57.54
68556;HTU21D;55544;51.032;5.866;2023-07-16T08:35:40;21.44;58.74
68556;HTU21D;55544;51.032;5.866;2023-07-16T08:38:06;21.47;58.32
68556;HTU21D;55544;51.032;5.866;2023-07-16T08:40:39;21.35;58.53
68556;HTU21D;55544;51.032;5.866;2023-07-16T08:43:08;21.50;58.67
68556;HTU21D;55544;51.032;5.866;2023-07-16T08:45:39;21.48;57.80
68556;HTU21D;55544;51.032;5.866;2023-07-16T08:48:13;21.35;57.64
68556;HTU21D;55544;51.032;5.866;2023-07-16T08:50:42;21.19;58.16
68556;HTU21D;55544;51.032;5.866;2023-07-16T08:53:07;21.13;59.24
68556;HTU21D;55544;51.032;5.866;2023-07-16T08:55:34;21.16;58.14
68556;HTU21D;55544;51.032;5.866;2023-07-16T08:58:04;21.32;57.57
68556;HTU21D;55544;51.032;5.866;2023-07-16T09:00:31;21.35;59.01
68556;HTU21D;55544;51.032;5.866;2023-07-16T09:02:57;21.62;57.54
68556;HTU21D;55544;51.032;5.866;2023-07-16T09:05:23;21.65;57.00
68556;HTU21D;55544;51.032;5.866;2023-07-16T09:07:50;21.61;56.62
68556;HTU21D;55544;51.032;5.866;2023-07-16T09:10:15;21.61;57.00
68556;HTU21D;55544;51.032;5.866;2023-07-16T09:12:45;21.52;57.03
68556;HTU21D;55544;51.032;5.866;2023-07-16T09:15:18;21.42;57.12
68556;HTU21D;55544;51.032;5.866;2023-07-16T09:17:47;21.33;56.77
68556;HTU21D;55544;51.032;5.866;2023-07-16T09:20:16;21.42;57.27
68556;HTU21D;55544;51.032;5.866;2023-07-16T09:22:43;21.62;58.04
68556;HTU21D;55544;51.032;5.866;2023-07-16T09:25:10;22.03;57.28
68556;HTU21D;55544;51.032;5.866;2023-07-16T09:27:36;22.27;56.23
68556;HTU21D;55544;51.032;5.866;2023-07-16T09:30:05;22.37;56.85
68556;HTU21D;55544;51.032;5.866;2023-07-16T09:32:37;22.51;55.61
68556;HTU21D;55544;51.032;5.866;2023-07-16T09:35:16;22.55;54.69
68556;HTU21D;55544;51.032;5.866;2023-07-16T09:37:42;22.70;54.16
68556;HTU21D;55544;51.032;5.866;2023-07-16T09:40:10;22.68;54.28
68556;HTU21D;55544;51.032;5.866;2023-07-16T09:42:41;22.66;53.17
68556;HTU21D;55544;51.032;5.866;2023-07-16T09:45:13;22.68;53.99
68556;HTU21D;55544;51.032;5.866;2023-07-16T09:47:42;22.96;56.07
68556;HTU21D;55544;51.032;5.866;2023-07-16T09:50:08;23.14;53.95
68556;HTU21D;55544;51.032;5.866;2023-07-16T09:52:34;23.07;52.97
68556;HTU21D;55544;51.032;5.866;2023-07-16T09:55:02;23.06;52.75
68556;HTU21D;55544;51.032;5.866;2023-07-16T09:57:32;22.99;52.29
68556;HTU21D;55544;51.032;5.866;2023-07-16T10:00:03;23.16;53.80
68556;HTU21D;55544;51.032;5.866;2023-07-16T10:02:38;23.40;52.72
68556;HTU21D;55544;51.032;5.866;2023-07-16T10:07:50;23.11;51.63
68556;HTU21D;55544;51.032;5.866;2023-07-16T10:10:16;22.96;51.27
68556;HTU21D;55544;51.032;5.866;2023-07-16T10:12:54;22.97;51.50
68556;HTU21D;55544;51.032;5.866;2023-07-16T10:15:28;22.86;52.11
68556;HTU21D;55544;51.032;5.866;2023-07-16T10:17:54;22.79;52.30
68556;HTU21D;55544;51.032;5.866;2023-07-16T10:20:34;22.72;53.10
68556;HTU21D;55544;51.032;5.866;2023-07-16T10:23:15;22.80;53.65
68556;HTU21D;55544;51.032;5.866;2023-07-16T10:26:00;22.91;52.31
68556;HTU21D;55544;51.032;5.866;2023-07-16T10:28:26;22.95;51.66
68556;HTU21D;55544;51.032;5.866;2023-07-16T10:30:52;22.96;52.13
68556;HTU21D;55544;51.032;5.866;2023-07-16T10:33:18;23.08;53.23
68556;HTU21D;55544;51.032;5.866;2023-07-16T10:35:45;23.23;51.90
68556;HTU21D;55544;51.032;5.866;2023-07-16T10:38:11;23.22;51.37
68556;HTU21D;55544;51.032;5.866;2023-07-16T10:40:42;23.05;52.17
68556;HTU21D;55544;51.032;5.866;2023-07-16T10:43:08;23.15;52.25
68556;HTU21D;55544;51.032;5.866;2023-07-16T10:45:35;23.50;53.17
68556;HTU21D;55544;51.032;5.866;2023-07-16T10:48:00;23.67;51.72
68556;HTU21D;55544;51.032;5.866;2023-07-16T10:50:26;23.62;51.21
68556;HTU21D;55544;51.032;5.866;2023-07-16T10:52:56;23.57;51.45
68556;HTU21D;55544;51.032;5.866;2023-07-16T10:55:23;23.59;51.75
68556;HTU21D;55544;51.032;5.866;2023-07-16T10:57:50;23.47;51.11
68556;HTU21D;55544;51.032;5.866;2023-07-16T11:00:17;23.21;51.01
68556;HTU21D;55544;51.032;5.866;2023-07-16T11:02:44;23.07;51.55
68556;HTU21D;55544;51.032;5.866;2023-07-16T11:05:11;22.99;52.07
68556;HTU21D;55544;51.032;5.866;2023-07-16T11:07:37;22.95;51.65
68556;HTU21D;55544;51.032;5.866;2023-07-16T11:10:03;22.88;51.87
68556;HTU21D;55544;51.032;5.866;2023-07-16T11:12:29;23.02;50.59
68556;HTU21D;55544;51.032;5.866;2023-07-16T11:14:56;23.05;50.72
68556;HTU21D;55544;51.032;5.866;2023-07-16T11:17:23;22.94;51.56
68556;HTU21D;55544;51.032;5.866;2023-07-16T11:19:52;22.96;50.81
68556;HTU21D;55544;51.032;5.866;2023-07-16T11:22:18;22.92;51.21
68556;HTU21D;55544;51.032;5.866;2023-07-16T11:24:50;23.12;51.82
68556;HTU21D;55544;51.032;5.866;2023-07-16T11:27:23;23.31;50.00
68556;HTU21D;55544;51.032;5.866;2023-07-16T11:29:52;23.28;49.98
68556;HTU21D;55544;51.032;5.866;2023-07-16T11:32:42;23.31;50.79
68556;HTU21D;55544;51.032;5.866;2023-07-16T11:35:15;23.29;49.50
68556;HTU21D;55544;51.032;5.866;2023-07-16T11:37:41;23.40;48.44
68556;HTU21D;55544;51.032;5.866;2023-07-16T11:40:10;23.57;49.46
68556;HTU21D;55544;51.032;5.866;2023-07-16T11:42:38;23.75;48.98
68556;HTU21D;55544;51.032;5.866;2023-07-16T11:45:14;23.79;49.41
68556;HTU21D;55544;51.032;5.866;2023-07-16T11:47:39;23.89;50.13
68556;HTU21D;55544;51.032;5.866;2023-07-16T11:50:06;24.27;50.24
68556;HTU21D;55544;51.032;5.866;2023-07-16T11:52:32;24.45;47.51
68556;HTU21D;55544;51.032;5.866;2023-07-16T11:54:59;24.38;47.11
68556;HTU21D;55544;51.032;5.866;2023-07-16T11:57:31;24.32;47.75
68556;HTU21D;55544;51.032;5.866;2023-07-16T11:59:57;24.24;47.18
68556;HTU21D;55544;51.032;5.866;2023-07-16T12:02:25;24.13;47.29
68556;HTU21D;55544;51.032;5.866;2023-07-16T12:04:51;24.09;48.91
68556;HTU21D;55544;51.032;5.866;2023-07-16T12:07:37;24.23;47.09
68556;HTU21D;55544;51.032;5.866;2023-07-16T12:10:05;24.18;47.30
68556;HTU21D;55544;51.032;5.866;2023-07-16T12:12:32;24.05;47.26
68556;HTU21D;55544;51.032;5.866;2023-07-16T12:14:59;24.01;47.89
68556;HTU21D;55544;51.032;5.866;2023-07-16T12:17:25;23.99;48.47
68556;HTU21D;55544;51.032;5.866;2023-07-16T12:19:50;23.81;48.50
68556;HTU21D;55544;51.032;5.866;2023-07-16T12:22:18;23.83;49.49
68556;HTU21D;55544;51.032;5.866;2023-07-16T12:24:44;24.25;50.07
68556;HTU21D;55544;51.032;5.866;2023-07-16T12:27:10;24.57;47.91
68556;HTU21D;55544;51.032;5.866;2023-07-16T12:29:36;24.63;46.28
68556;HTU21D;55544;51.032;5.866;2023-07-16T12:32:01;24.47;46.46
68556;HTU21D;55544;51.032;5.866;2023-07-16T12:34:27;24.38;46.07
68556;HTU21D;55544;51.032;5.866;2023-07-16T12:36:53;24.36;46.71
68556;HTU21D;55544;51.032;5.866;2023-07-16T12:39:21;24.32;46.58
68556;HTU21D;55544;51.032;5.866;2023-07-16T12:41:47;24.33;46.23
68556;HTU21D;55544;51.032;5.866;2023-07-16T12:44:12;24.24;46.64
68556;HTU21D;55544;51.032;5.866;2023-07-16T12:46:38;24.29;47.47
68556;HTU21D;55544;51.032;5.866;2023-07-16T12:49:04;24.45;47.25
68556;HTU21D;55544;51.032;5.866;2023-07-16T12:51:29;24.76;47.00
68556;HTU21D;55544;51.032;5.866;2023-07-16T12:53:55;25.16;46.39
68556;HTU21D;55544;51.032;5.866;2023-07-16T12:56:21;25.54;45.54
68556;HTU21D;55544;51.032;5.866;2023-07-16T12:58:50;25.77;45.03
68556;HTU21D;55544;51.032;5.866;2023-07-16T13:01:15;25.79;44.04
68556;HTU21D;55544;51.032;5.866;2023-07-16T13:03:41;25.76;44.35
68556;HTU21D;55544;51.032;5.866;2023-07-16T13:06:07;25.75;44.56
68556;HTU21D;55544;51.032;5.866;2023-07-16T13:08:32;25.99;43.64
68556;HTU21D;55544;51.032;5.866;2023-07-16T13:10:58;26.33;43.27
68556;HTU21D;55544;51.032;5.866;2023-07-16T13:13:24;26.43;43.60
68556;HTU21D;55544;51.032;5.866;2023-07-16T13:15:50;26.46;43.28
68556;HTU21D;55544;51.032;5.866;2023-07-16T13:18:15;26.33;42.05
68556;HTU21D;55544;51.032;5.866;2023-07-16T13:20:42;26.25;43.05
68556;HTU21D;55544;51.032;5.866;2023-07-16T13:23:08;26.42;43.26
68556;HTU21D;55544;51.032;5.866;2023-07-16T13:25:34;26.56;42.96
68556;HTU21D;55544;51.032;5.866;2023-07-16T13:28:02;26.38;42.36
68556;HTU21D;55544;51.032;5.866;2023-07-16T13:30:28;26.01;42.67
68556;HTU21D;55544;51.032;5.866;2023-07-16T13:32:54;25.48;42.37
68556;HTU21D;55544;51.032;5.866;2023-07-16T13:35:22;25.12;43.95
68556;HTU21D;55544;51.032;5.866;2023-07-16T13:37:48;24.85;45.03
68556;HTU21D;55544;51.032;5.866;2023-07-16T13:40:14;24.93;46.25
68556;HTU21D;55544;51.032;5.866;2023-07-16T13:42:39;25.35;46.99
68556;HTU21D;55544;51.032;5.866;2023-07-16T13:45:06;25.72;45.14
68556;HTU21D;55544;51.032;5.866;2023-07-16T13:47:32;25.77;44.42
68556;HTU21D;55544;51.032;5.866;2023-07-16T13:49:58;25.64;43.84
68556;HTU21D;55544;51.032;5.866;2023-07-16T13:52:23;25.37;44.51
68556;HTU21D;55544;51.032;5.866;2023-07-16T13:54:49;25.19;45.53
68556;HTU21D;55544;51.032;5.866;2023-07-16T13:57:15;24.92;44.71
68556;HTU21D;55544;51.032;5.866;2023-07-16T13:59:41;24.72;45.52
68556;HTU21D;55544;51.032;5.866;2023-07-16T14:02:07;24.54;46.69
68556;HTU21D;55544;51.032;5.866;2023-07-16T14:04:33;24.64;46.19
68556;HTU21D;55544;51.032;5.866;2023-07-16T14:06:59;24.94;45.78
68556;HTU21D;55544;51.032;5.866;2023-07-16T14:09:25;25.16;44.80
68556;HTU21D;55544;51.032;5.866;2023-07-16T14:11:51;25.38;45.53
68556;HTU21D;55544;51.032;5.866;2023-07-16T14:14:17;25.68;44.83
68556;HTU21D;55544;51.032;5.866;2023-07-16T14:16:43;26.03;44.55
68556;HTU21D;55544;51.032;5.866;2023-07-16T14:19:10;26.17;44.03
68556;HTU21D;55544;51.032;5.866;2023-07-16T14:21:38;26.28;44.98
68556;HTU21D;55544;51.032;5.866;2023-07-16T14:24:04;26.50;44.23
68556;HTU21D;55544;51.032;5.866;2023-07-16T14:26:30;26.54;42.84
68556;HTU21D;55544;51.032;5.866;2023-07-16T14:28:56;26.39;42.71
68556;HTU21D;55544;51.032;5.866;2023-07-16T14:31:21;26.38;42.02
68556;HTU21D;55544;51.032;5.866;2023-07-16T14:33:47;26.31;42.16
68556;HTU21D;55544;51.032;5.866;2023-07-16T14:36:13;26.10;42.12
68556;HTU21D;55544;51.032;5.866;2023-07-16T14:38:39;25.77;41.74
68556;HTU21D;55544;51.032;5.866;2023-07-16T14:41:04;25.66;44.03
68556;HTU21D;55544;51.032;5.866;2023-07-16T14:43:31;25.67;44.31
68556;HTU21D;55544;51.032;5.866;2023-07-16T14:45:57;25.63;44.87
68556;HTU21D;55544;51.032;5.866;2023-07-16T14:48:23;25.64;45.42
68556;HTU21D;55544;51.032;5.866;2023-07-16T14:50:52;25.59;44.05
68556;HTU21D;55544;51.032;5.866;2023-07-16T14:53:18;25.48;44.80
68556;HTU21D;55544;51.032;5.866;2023-07-16T14:55:51;25.49;45.01
68556;HTU21D;55544;51.032;5.866;2023-07-16T14:58:20;25.60;43.32
68556;HTU21D;55544;51.032;5.866;2023-07-16T15:00:47;25.54;43.34
68556;HTU21D;55544;51.032;5.866;2023-07-16T15:03:13;25.58;43.59
68556;HTU21D;55544;51.032;5.866;2023-07-16T15:05:39;25.91;42.79
68556;HTU21D;55544;51.032;5.866;2023-07-16T15:08:05;26.06;42.58
68556;HTU21D;55544;51.032;5.866;2023-07-16T15:10:32;25.94;42.82
68556;HTU21D;55544;51.032;5.866;2023-07-16T15:12:58;25.94;43.04
68556;HTU21D;55544;51.032;5.866;2023-07-16T15:15:23;25.80;42.79
68556;HTU21D;55544;51.032;5.866;2023-07-16T15:17:49;25.74;42.58
68556;HTU21D;55544;51.032;5.866;2023-07-16T15:20:15;25.67;42.31
68556;HTU21D;55544;51.032;5.866;2023-07-16T15:22:41;25.58;42.90
68556;HTU21D;55544;51.032;5.866;2023-07-16T15:25:07;25.51;43.88
68556;HTU21D;55544;51.032;5.866;2023-07-16T15:27:33;25.56;43.51